Portada
METAR-TAF:

METAR-TAF

Aeroports :

Illes Cocos, Austràlia

latitud: 12-11S, longitud: 096-49E, altitud: 3 m

Observació

L'informe es va fer fa 22 minuts, a les 13:30 UTC
Vent 11 kt del Est
Temperatura 28°C
Humitat 74%
Pressió 1013 hPa
Visibilitat 10 km o més

METAR: YPCC 151330Z AUTO 10011KT 9999 // NCD 28/23 Q1013 RF00.0/000.2

Hora: 20:22 (13:52 UTC)

Pronòstic

L'informe es va fer fa 2 hores i 50 minuts, a les 11:02 UTC
Pronòstic vàlid del 15 a les 12 UTC al 16 a les 12 UTC
Vent 18 kt del Est
Visibilitat: 3000 m
Núvols disperses a una alçada de 2500 ft
Cel ennuvolat a una alçada de 1000 ft
xàfecs de pluja,

TAF: YPCC 151102Z 1512/1612 08018KT 9999 SCT025 INTER 1520/1603 3000 SHRA BKN010

Observacions i pronòstics meteorològics de més de 4000 aeroports (METAR i TAF).

Les estacions disponibles són els punts grocs i vermells al mapa.

Posi el ratolí al punt desitjat per veure el nom de l'estació.

Feu clic per veure les observacions i els pronòstics meteorològics.

Per canviar el mapa: feu clic els botons verds amb una creu de color negre per apropar; al botó verd amb un guió per allunyar la imatge; o en les fletxes verdes per a mapes adjacents.


METAR-TAF: